Time;durP1;ratioP1;P1;durP2;ratioP2;P2;SDS_P1;SDS_P2;PMS_P1;PMS_P2;Temp;Humidity;BMP_temperature;BMP_pressure;BME280_temperature;BME280_humidity;BME280_pressure;Samples;Min_cycle;Max_cycle;Signal;HPM_P1;HPM_P2
2022/06/13 00:01:11;;;;;;;1999.90;999.90;;;;;;;24.21;43.75;95442.13;5013399;28;20077;-67
2022/06/13 00:03:38;;;;;;;1999.90;999.90;;;;;;;22.54;46.75;95472.44;5013530;28;20088;-67
2022/06/13 00:06:03;;;;;;;1999.90;999.90;;;;;;;22.42;47.93;95473.50;5013517;28;20466;-67
2022/06/13 00:08:28;;;;;;;1999.90;999.90;;;;;;;21.39;51.97;95504.66;5013292;28;20033;-67
2022/06/13 00:10:54;;;;;;;1999.90;999.90;;;;;;;20.49;57.50;95492.34;5013140;28;20025;-66
2022/06/13 00:13:19;;;;;;;1999.90;999.90;;;;;;;19.88;61.12;95513.88;5013265;28;20142;-66
2022/06/13 00:15:44;;;;;;;1999.90;999.90;;;;;;;19.48;65.84;95552.69;5013152;28;20018;-67
2022/06/13 00:18:10;;;;;;;1999.90;999.90;;;;;;;19.67;67.21;95574.38;5013157;28;20100;-67
2022/06/13 00:20:35;;;;;;;1999.90;999.90;;;;;;;19.97;67.02;95563.84;5012916;28;20116;-67
2022/06/13 00:23:00;;;;;;;1999.90;999.90;;;;;;;19.08;70.88;95556.38;5013028;28;20026;-67
2022/06/13 00:25:26;;;;;;;1999.90;999.90;;;;;;;19.01;73.18;95550.81;5013234;28;20097;-67
2022/06/13 00:27:51;;;;;;;1999.90;999.90;;;;;;;18.86;73.95;95554.28;5013072;28;20030;-67
2022/06/13 00:30:16;;;;;;;1999.90;999.90;;;;;;;19.31;74.32;95561.16;5012552;28;20057;-67
2022/06/13 00:32:42;;;;;;;1999.90;999.90;;;;;;;19.34;73.78;95541.56;5012713;28;20037;-68
2022/06/13 00:35:08;;;;;;;1999.90;999.90;;;;;;;18.96;75.07;95546.47;5013008;28;20037;-67
2022/06/13 00:37:33;;;;;;;1999.90;999.90;;;;;;;19.08;75.40;95575.25;5012703;28;20030;-68
2022/06/13 00:39:58;;;;;;;1999.90;999.90;;;;;;;19.57;73.13;95558.69;5012350;28;20125;-67
2022/06/13 00:42:26;;;;;;;1999.90;999.90;;;;;;;20.02;71.93;95564.72;5012658;28;20355;-67
2022/06/13 00:45:06;;;;;;;1999.90;999.90;;;;;;;20.58;69.30;95575.91;5012656;28;20462;-67
2022/06/13 00:47:31;;;;;;;1999.90;999.90;;;;;;;20.59;69.81;95595.59;5012714;28;20029;-67
2022/06/13 00:49:58;;;;;;;1999.90;999.90;;;;;;;20.48;70.71;95614.31;5012195;28;20489;-68
2022/06/13 00:52:33;;;;;;;1999.90;999.90;;;;;;;20.03;72.27;95634.56;5012440;28;20469;-67
2022/06/13 00:54:59;;;;;;;1999.90;999.90;;;;;;;19.60;74.12;95620.06;5012644;28;20553;-67
2022/06/13 00:57:28;;;;;;;1999.90;999.90;;;;;;;20.18;73.31;95627.56;5012099;28;20029;-67
2022/06/13 00:59:59;;;;;;;1999.90;999.90;;;;;;;20.30;72.48;95624.72;5011014;28;20033;-67
2022/06/13 01:02:24;;;;;;;1999.90;999.90;;;;;;;19.44;75.81;95595.00;5012114;28;20034;-67
2022/06/13 01:04:52;;;;;;;1999.90;999.90;;;;;;;19.12;78.08;95592.28;5010874;28;20475;-67
2022/06/13 01:07:20;;;;;;;1999.90;999.90;;;;;;;19.23;78.98;95595.25;5010700;28;20037;-67
2022/06/13 01:12:32;;;;;;;1999.90;999.90;;;;;;;20.26;76.69;95569.81;5012285;28;20085;-67
2022/06/13 01:15:18;;;;;;;1999.90;999.90;;;;;;;20.59;75.87;95571.28;5010719;28;20022;-67
2022/06/13 01:18:16;;;;;;;1999.90;999.90;;;;;;;19.62;77.09;95580.03;5010833;28;20029;-67
2022/06/13 01:21:07;;;;;;;1999.90;999.90;;;;;;;19.21;79.89;95576.72;4978357;28;20602;-66
2022/06/13 01:24:12;;;;;;;1999.90;999.90;;;;;;;19.55;79.07;95582.56;5010658;28;20105;-66
2022/06/13 01:26:40;;;;;;;1999.90;999.90;;;;;;;19.92;77.84;95593.03;5011686;28;20437;-67
2022/06/13 01:29:41;;;;;;;1999.90;999.90;;;;;;;19.57;78.98;95599.16;5010639;28;20482;-67
2022/06/13 01:32:30;;;;;;;1999.90;999.90;;;;;;;20.37;76.70;95592.47;4986852;28;20038;-69
2022/06/13 01:35:10;;;;;;;1999.90;999.90;;;;;;;20.12;75.82;95600.03;5011835;28;20101;-67
2022/06/13 01:38:05;;;;;;;1999.90;999.90;;;;;;;19.63;78.54;95600.50;5010470;28;20390;-67
2022/06/13 01:40:43;;;;;;;1999.90;999.90;;;;;;;19.71;78.06;95618.41;5011207;28;20022;-67
2022/06/13 01:43:31;;;;;;;1999.90;999.90;;;;;;;19.52;78.96;95617.53;5010433;28;20036;-67
2022/06/13 01:46:27;;;;;;;1999.90;999.90;;;;;;;19.84;78.88;95621.00;5011593;28;20018;-66
2022/06/13 01:49:06;;;;;;;1999.90;999.90;;;;;;;19.24;80.75;95604.91;5010401;28;20029;-67
2022/06/13 01:51:41;;;;;;;1999.90;999.90;;;;;;;19.47;79.05;95597.00;5011006;28;20061;-67
2022/06/13 01:54:39;;;;;;;1999.90;999.90;;;;;;;19.58;79.64;95599.94;5011293;28;20049;-67
2022/06/13 01:57:23;;;;;;;1999.90;999.90;;;;;;;19.71;79.07;95604.16;5011327;28;20061;-67
2022/06/13 02:00:11;;;;;;;1999.90;999.90;;;;;;;20.18;76.26;95606.72;5011311;28;20466;-66
2022/06/13 02:02:43;;;;;;;1999.90;999.90;;;;;;;19.60;78.18;95636.25;5011167;28;20041;-67
2022/06/13 02:05:20;;;;;;;1999.90;999.90;;;;;;;19.21;80.65;95636.06;5011149;28;20022;-67
2022/06/13 02:07:50;;;;;;;1999.90;999.90;;;;;;;18.98;82.41;95643.16;5009619;28;20687;-67
2022/06/13 02:10:20;;;;;;;1999.90;999.90;;;;;;;19.15;82.13;95640.16;5007177;28;20037;-67
2022/06/13 02:12:52;;;;;;;1999.90;999.90;;;;;;;18.80;82.87;95652.69;5010712;28;20037;-67
2022/06/13 02:15:27;;;;;;;1999.90;999.90;;;;;;;18.70;83.39;95641.28;5009777;28;20486;-67
2022/06/13 02:18:02;;;;;;;1999.90;999.90;;;;;;;18.77;83.50;95646.06;5010778;28;20041;-67
2022/06/13 02:20:34;;;;;;;1999.90;999.90;;;;;;;19.27;82.09;95635.81;5010408;28;20034;-67
2022/06/13 02:23:06;;;;;;;1999.90;999.90;;;;;;;19.69;80.60;95636.09;5011032;28;20042;-67
2022/06/13 02:25:38;;;;;;;1999.90;999.90;;;;;;;19.42;79.45;95625.03;5010881;28;20026;-67
2022/06/13 02:28:30;;;;;;;1999.90;999.90;;;;;;;19.38;80.41;95615.28;5011007;28;20116;-67
2022/06/13 02:31:01;;;;;;;1999.90;999.90;;;;;;;19.80;78.86;95593.91;5010546;28;20033;-67
2022/06/13 02:33:32;;;;;;;1999.90;999.90;;;;;;;20.00;78.68;95603.63;5010917;28;20394;-67
2022/06/13 02:36:04;;;;;;;1999.90;999.90;;;;;;;20.00;78.00;95581.25;5009522;28;20018;-67
2022/06/13 02:38:44;;;;;;;1999.90;999.90;;;;;;;20.03;77.02;95571.66;5010585;28;20075;-67
2022/06/13 02:41:16;;;;;;;1999.90;999.90;;;;;;;20.25;76.32;95600.69;5010242;28;20912;-66
2022/06/13 02:43:47;;;;;;;1999.90;999.90;;;;;;;20.16;77.52;95608.19;5010611;28;20045;-66
2022/06/13 02:46:22;;;;;;;1999.90;999.90;;;;;;;19.98;78.89;95603.22;5009336;28;20364;-67
2022/06/13 02:48:57;;;;;;;1999.90;999.90;;;;;;;20.63;77.79;95594.53;5009233;28;20034;-67
2022/06/13 02:51:47;;;;;;;1999.90;999.90;;;;;;;21.04;77.47;95600.31;5009977;28;20104;-66
2022/06/13 02:54:29;;;;;;;1999.90;999.90;;;;;;;21.31;76.95;95613.94;5008638;28;20167;-67
2022/06/13 02:57:29;;;;;;;1999.90;999.90;;;;;;;21.48;76.87;95610.72;5010595;28;20136;-67
2022/06/13 03:00:06;;;;;;;1999.90;999.90;;;;;;;21.64;76.56;95616.78;5008847;28;20049;-66
2022/06/13 03:02:42;;;;;;;1999.90;999.90;;;;;;;21.46;74.44;95632.75;5009960;28;20474;-66
2022/06/13 03:05:28;;;;;;;1999.90;999.90;;;;;;;21.38;75.26;95633.75;5008895;28;20075;-67
2022/06/13 03:08:30;;;;;;;1999.90;999.90;;;;;;;21.52;75.67;95608.84;5009085;28;20021;-66
2022/06/13 03:11:20;;;;;;;1999.90;999.90;;;;;;;21.46;74.50;95621.91;5009983;28;20445;-67
2022/06/13 03:13:57;;;;;;;1999.90;999.90;;;;;;;20.83;73.60;95626.94;5008897;28;20026;-67
2022/06/13 03:16:35;;;;;;;1999.90;999.90;;;;;;;21.17;75.52;95634.16;5008682;28;20109;-67
2022/06/13 03:19:08;;;;;;;1999.90;999.90;;;;;;;21.13;75.42;95617.06;5009939;28;20058;-66
2022/06/13 03:21:37;;;;;;;1999.90;999.90;;;;;;;21.36;76.04;95597.41;5009367;28;20467;-67
2022/06/13 03:24:21;;;;;;;1999.90;999.90;;;;;;;21.55;75.95;95572.97;5009760;28;20542;-67
2022/06/13 03:26:55;;;;;;;1999.90;999.90;;;;;;;21.60;75.79;95548.28;5010141;28;20022;-67
2022/06/13 03:29:29;;;;;;;1999.90;999.90;;;;;;;21.49;74.98;95550.81;5008535;28;20824;-66
2022/06/13 03:31:59;;;;;;;1999.90;999.90;;;;;;;21.58;75.18;95544.38;5008309;28;20033;-66
2022/06/13 03:34:28;;;;;;;1999.90;999.90;;;;;;;21.61;75.17;95528.19;5009859;28;20406;-67
2022/06/13 03:37:10;;;;;;;1999.90;999.90;;;;;;;21.62;75.23;95539.78;5008425;28;20080;-67
2022/06/13 03:39:42;;;;;;;1999.90;999.90;;;;;;;21.58;74.18;95584.97;5008603;28;20024;-67
2022/06/13 03:42:15;;;;;;;1999.90;999.90;;;;;;;21.32;73.89;95580.31;5008286;28;20034;-67
2022/06/13 03:45:07;;;;;;;1999.90;999.90;;;;;;;21.50;74.79;95582.16;5008255;28;20364;-67
2022/06/13 03:47:52;;;;;;;1999.90;999.90;;;;;;;21.53;74.85;95583.34;5009615;28;20030;-66
2022/06/13 03:50:29;;;;;;;1999.90;999.90;;;;;;;21.60;74.75;95594.31;5008021;28;20021;-67
2022/06/13 03:53:15;;;;;;;1999.90;999.90;;;;;;;21.63;74.88;95588.16;5009569;28;20033;-67
2022/06/13 03:55:50;;;;;;;1999.90;999.90;;;;;;;21.68;75.12;95587.84;5009319;28;20486;-68
2022/06/13 03:58:30;;;;;;;1999.90;999.90;;;;;;;21.66;74.92;95573.91;5009496;28;20378;-67
2022/06/13 04:01:05;;;;;;;1999.90;999.90;;;;;;;21.78;74.88;95578.31;5009082;28;20037;-67
2022/06/13 04:03:31;;;;;;;1999.90;999.90;;;;;;;21.79;74.41;95567.09;5009181;28;20060;-67
2022/06/13 04:06:06;;;;;;;1999.90;999.90;;;;;;;21.84;74.61;95560.59;5008189;28;20030;-67
2022/06/13 04:08:35;;;;;;;1999.90;999.90;;;;;;;21.85;74.74;95547.84;5009350;28;20053;-67
2022/06/13 04:11:00;;;;;;;1999.90;999.90;;;;;;;22.00;74.50;95568.56;5009176;28;20064;-66
2022/06/13 04:13:31;;;;;;;1999.90;999.90;;;;;;;21.95;73.98;95563.44;5009228;28;20066;-67
2022/06/13 04:16:28;;;;;;;1999.90;999.90;;;;;;;21.99;74.36;95561.56;5009434;28;20025;-67
2022/06/13 04:19:17;;;;;;;1999.90;999.90;;;;;;;22.01;74.65;95556.59;5007980;28;20033;-67
2022/06/13 04:22:03;;;;;;;1999.90;999.90;;;;;;;22.08;74.23;95564.03;5007565;28;20418;-67
2022/06/13 04:24:57;;;;;;;1999.90;999.90;;;;;;;22.08;74.60;95559.38;5009445;28;20540;-67
2022/06/13 04:27:28;;;;;;;1999.90;999.90;;;;;;;21.98;73.96;95557.31;5009419;28;20029;-67
2022/06/13 04:30:16;;;;;;;1999.90;999.90;;;;;;;21.95;74.13;95566.16;5007654;28;20525;-67
2022/06/13 04:32:51;;;;;;;1999.90;999.90;;;;;;;22.01;74.41;95562.00;5009522;28;20125;-67
2022/06/13 04:35:17;;;;;;;1999.90;999.90;;;;;;;22.04;74.47;95558.56;5012926;28;20026;-68
2022/06/13 04:37:44;;;;;;;1999.90;999.90;;;;;;;22.15;74.05;95573.03;5012944;28;20482;-67
2022/06/13 04:40:16;;;;;;;1999.90;999.90;;;;;;;22.14;74.17;95574.19;5011321;28;20052;-67
2022/06/13 04:42:43;;;;;;;1999.90;999.90;;;;;;;22.15;74.16;95554.06;5012731;28;20490;-67
2022/06/13 04:45:26;;;;;;;1999.90;999.90;;;;;;;22.39;73.98;95558.25;5011305;28;20057;-67
2022/06/13 04:47:53;;;;;;;1999.90;999.90;;;;;;;22.54;73.80;95559.19;5012504;28;20418;-67
2022/06/13 04:50:29;;;;;;;1999.90;999.90;;;;;;;22.59;73.39;95561.56;5012252;28;20501;-67
2022/06/13 04:52:58;;;;;;;1999.90;999.90;;;;;;;22.62;73.38;95563.53;5012127;28;20045;-66
2022/06/13 04:55:31;;;;;;;1999.90;999.90;;;;;;;22.64;73.09;95574.03;5011211;28;20482;-67
2022/06/13 04:57:58;;;;;;;1999.90;999.90;;;;;;;22.60;73.29;95587.53;5012433;28;20037;-67
2022/06/13 05:00:23;;;;;;;1999.90;999.90;;;;;;;22.52;73.09;95602.94;5011713;28;20552;-67
2022/06/13 05:02:53;;;;;;;1999.90;999.90;;;;;;;22.29;72.78;95577.88;5012505;28;20030;-68
2022/06/13 05:05:43;;;;;;;1999.90;999.90;;;;;;;22.26;73.11;95571.25;5012279;28;20030;-68
2022/06/13 05:08:20;;;;;;;1999.90;999.90;;;;;;;22.21;72.84;95566.16;5012259;28;20059;-67
2022/06/13 05:10:49;;;;;;;1999.90;999.90;;;;;;;22.35;72.75;95584.50;5011834;28;20022;-68
2022/06/13 05:13:16;;;;;;;1999.90;999.90;;;;;;;22.25;72.85;95588.66;5012080;28;20116;-67
2022/06/13 05:15:43;;;;;;;1999.90;999.90;;;;;;;22.29;72.45;95588.72;5012039;28;20474;-68
2022/06/13 05:18:30;;;;;;;1999.90;999.90;;;;;;;22.13;71.02;95583.47;5010868;28;20057;-67
2022/06/13 05:21:28;;;;;;;1999.90;999.90;;;;;;;21.87;71.21;95557.16;5011958;28;20018;-68
2022/06/13 05:24:24;;;;;;;1999.90;999.90;;;;;;;22.14;72.65;95590.44;5010739;28;20038;-67
2022/06/13 05:26:49;;;;;;;1999.90;999.90;;;;;;;22.18;72.88;95577.72;5010721;28;20100;-67
2022/06/13 05:29:15;;;;;;;1999.90;999.90;;;;;;;22.17;72.72;95557.22;5010710;28;20022;-67
2022/06/13 05:31:42;;;;;;;1999.90;999.90;;;;;;;22.25;72.72;95560.78;5011650;28;20113;-67
2022/06/13 05:34:20;;;;;;;1999.90;999.90;;;;;;;22.40;72.60;95572.56;5010625;28;20029;-67
2022/06/13 05:36:46;;;;;;;1999.90;999.90;;;;;;;22.59;72.17;95564.28;5010528;28;20049;-67
2022/06/13 05:39:12;;;;;;;1999.90;999.90;;;;;;;22.74;72.10;95559.78;5011909;28;20053;-67
2022/06/13 05:41:37;;;;;;;1999.90;999.90;;;;;;;22.96;71.78;95556.16;5010118;28;20025;-67
2022/06/13 05:44:04;;;;;;;1999.90;999.90;;;;;;;23.25;71.13;95568.06;5009189;28;20029;-67
2022/06/13 05:46:36;;;;;;;1999.90;999.90;;;;;;;23.61;71.16;95577.25;5011532;28;20035;-67
2022/06/13 05:49:02;;;;;;;1999.90;999.90;;;;;;;23.93;70.09;95584.88;5011500;28;20490;-67
2022/06/13 05:51:28;;;;;;;1999.90;999.90;;;;;;;24.12;69.64;95573.72;5011030;28;20103;-68
2022/06/13 05:53:53;;;;;;;1999.90;999.90;;;;;;;24.21;68.85;95573.38;5009994;28;20030;-67
2022/06/13 05:56:20;;;;;;;1999.90;999.90;;;;;;;24.28;68.67;95588.94;5010030;28;20112;-68
2022/06/13 05:58:46;;;;;;;1999.90;999.90;;;;;;;24.38;68.99;95589.03;5011236;28;20021;-67
2022/06/13 06:01:14;;;;;;;1999.90;999.90;;;;;;;24.38;68.62;95556.41;5009616;28;20033;-67
2022/06/13 06:03:41;;;;;;;1999.90;999.90;;;;;;;24.44;66.76;95558.75;5010021;28;20033;-67
2022/06/13 06:06:09;;;;;;;1999.90;999.90;;;;;;;24.63;67.23;95575.53;5009862;28;20022;-67
2022/06/13 06:08:36;;;;;;;1999.90;999.90;;;;;;;24.46;65.38;95583.59;5009542;28;20030;-68
2022/06/13 06:11:02;;;;;;;1999.90;999.90;;;;;;;24.02;62.64;95570.94;5009593;28;20045;-68
2022/06/13 06:13:29;;;;;;;1999.90;999.90;;;;;;;24.48;65.99;95573.13;5011163;28;20026;-67
2022/06/13 06:15:56;;;;;;;1999.90;999.90;;;;;;;24.79;65.93;95574.41;5009557;28;20025;-68
2022/06/13 06:18:23;;;;;;;1999.90;999.90;;;;;;;24.74;64.98;95570.13;5010453;28;20026;-70
2022/06/13 06:20:48;;;;;;;1999.90;999.90;;;;;;;24.82;65.04;95558.06;5010535;28;20028;-69
2022/06/13 06:23:14;;;;;;;1999.90;999.90;;;;;;;24.50;63.43;95573.53;5010777;28;20022;-68
2022/06/13 06:25:40;;;;;;;1999.90;999.90;;;;;;;24.93;66.04;95558.13;5010952;28;20105;-68
2022/06/13 06:28:06;;;;;;;1999.90;999.90;;;;;;;25.41;65.73;95566.72;5009426;28;20382;-67
2022/06/13 06:30:32;;;;;;;1999.90;999.90;;;;;;;25.67;64.93;95573.72;5010031;28;20109;-67
2022/06/13 06:32:58;;;;;;;1999.90;999.90;;;;;;;25.37;60.20;95582.28;5010538;28;20113;-68
2022/06/13 06:35:26;;;;;;;1999.90;999.90;;;;;;;25.68;61.17;95579.94;5009089;28;20117;-68
2022/06/13 06:37:53;;;;;;;1999.90;999.90;;;;;;;24.50;63.29;95584.41;5010420;28;20072;-68
2022/06/13 06:40:21;;;;;;;1999.90;999.90;;;;;;;25.71;62.77;95584.63;5010094;28;20029;-68
2022/06/13 06:42:46;;;;;;;1999.90;999.90;;;;;;;26.13;61.65;95580.28;5010595;28;20014;-69
2022/06/13 06:45:12;;;;;;;1999.90;999.90;;;;;;;26.17;61.66;95584.56;5010107;28;20034;-69
2022/06/13 06:47:41;;;;;;;1999.90;999.90;;;;;;;25.97;56.15;95569.03;5009061;28;20056;-68
2022/06/13 06:50:11;;;;;;;1999.90;999.90;;;;;;;26.14;62.12;95576.38;5009928;28;20030;-68
2022/06/13 06:52:36;;;;;;;1999.90;999.90;;;;;;;26.03;61.86;95584.59;5009685;28;20037;-68
2022/06/13 07:00:30;;;;;;;1999.90;999.90;;;;;;;24.45;59.59;95588.25;5009771;28;20037;-69
2022/06/13 07:02:57;;;;;;;1999.90;999.90;;;;;;;23.92;58.20;95599.63;5009945;28;20426;-68
2022/06/13 07:05:22;;;;;;;1999.90;999.90;;;;;;;24.13;62.30;95588.88;5008810;28;20054;-68
2022/06/13 07:07:48;;;;;;;1999.90;999.90;;;;;;;23.68;59.34;95576.56;5010107;28;20525;-68
2022/06/13 07:10:14;;;;;;;1999.90;999.90;;;;;;;23.51;62.01;95601.63;5009370;28;20029;-68
2022/06/13 07:12:40;;;;;;;1999.90;999.90;;;;;;;22.15;64.12;95602.84;5008491;28;20425;-68
2022/06/13 07:15:06;;;;;;;1999.90;999.90;;;;;;;21.86;65.92;95612.50;5009887;28;20030;-68
2022/06/13 07:17:32;;;;;;;1999.90;999.90;;;;;;;21.82;67.36;95602.75;5008640;28;20715;-67
2022/06/13 07:19:57;;;;;;;1999.90;999.90;;;;;;;21.88;67.35;95609.41;5008405;28;20032;-68
2022/06/13 07:22:24;;;;;;;1999.90;999.90;;;;;;;21.71;66.99;95610.72;5009886;28;20080;-67
2022/06/13 07:24:51;;;;;;;1999.90;999.90;;;;;;;22.04;66.46;95607.31;5008518;28;20121;-68
2022/06/13 07:27:17;;;;;;;1999.90;999.90;;;;;;;21.20;69.51;95614.50;5008361;28;20394;-67
2022/06/13 07:29:43;;;;;;;1999.90;999.90;;;;;;;21.42;68.58;95601.34;5009695;28;20026;-67
2022/06/13 07:32:22;;;;;;;1999.90;999.90;;;;;;;21.63;68.70;95607.09;5009399;28;20022;-67
2022/06/13 07:34:50;;;;;;;1999.90;999.90;;;;;;;22.36;65.82;95615.09;5008569;28;20033;-67
2022/06/13 07:40:07;;;;;;;1999.90;999.90;;;;;;;21.13;70.71;95617.06;5009400;28;20075;-67
2022/06/13 07:42:39;;;;;;;1999.90;999.90;;;;;;;22.48;64.68;95610.25;5009283;28;20421;-67
2022/06/13 07:45:05;;;;;;;1999.90;999.90;;;;;;;22.56;66.19;95613.81;5009640;28;20669;-66
2022/06/13 07:47:31;;;;;;;1999.90;999.90;;;;;;;22.04;66.23;95610.00;5007674;28;20103;-67
2022/06/13 07:49:57;;;;;;;1999.90;999.90;;;;;;;21.78;67.89;95605.38;5007914;28;20018;-69
2022/06/13 07:52:22;;;;;;;1999.90;999.90;;;;;;;23.02;63.65;95608.94;5008926;28;20048;-67
2022/06/13 07:54:48;;;;;;;1999.90;999.90;;;;;;;21.92;66.47;95607.53;5008337;28;20075;-67
2022/06/13 07:57:13;;;;;;;1999.90;999.90;;;;;;;23.04;64.27;95624.84;5008194;28;20474;-67
2022/06/13 07:59:40;;;;;;;1999.90;999.90;;;;;;;21.77;65.65;95628.97;5009652;28;20026;-67
2022/06/13 08:02:06;;;;;;;1999.90;999.90;;;;;;;21.09;66.87;95635.19;5009303;28;20022;-67
2022/06/13 08:04:31;;;;;;;1999.90;999.90;;;;;;;21.12;64.48;95630.94;5009345;28;20104;-66
2022/06/13 08:06:57;;;;;;;1999.90;999.90;;;;;;;21.58;64.24;95625.56;5010160;28;20104;-67
2022/06/13 08:09:22;;;;;;;1999.90;999.90;;;;;;;21.55;63.42;95629.81;5013294;28;20041;-67
2022/06/13 08:11:50;;;;;;;1999.90;999.90;;;;;;;20.78;64.63;95636.16;5012938;28;20053;-67
2022/06/13 08:14:16;;;;;;;1999.90;999.90;;;;;;;21.38;61.99;95632.97;5013322;28;20022;-67
2022/06/13 08:16:42;;;;;;;1999.90;999.90;;;;;;;21.45;62.42;95625.00;5011818;28;20018;-67
2022/06/13 08:19:08;;;;;;;1999.90;999.90;;;;;;;21.44;62.45;95640.44;5013016;28;20084;-67
2022/06/13 08:21:36;;;;;;;1999.90;999.90;;;;;;;21.56;61.23;95639.47;5011093;28;20053;-66
2022/06/13 08:24:02;;;;;;;1999.90;999.90;;;;;;;20.59;62.73;95619.94;5013110;28;20378;-67
2022/06/13 08:26:28;;;;;;;1999.90;999.90;;;;;;;21.33;61.33;95611.63;5013088;28;20080;-67
2022/06/13 08:28:54;;;;;;;1999.90;999.90;;;;;;;21.28;62.33;95640.50;5013048;28;20025;-68
2022/06/13 08:31:21;;;;;;;1999.90;999.90;;;;;;;21.35;61.68;95634.50;5011233;28;20057;-67
2022/06/13 08:33:47;;;;;;;1999.90;999.90;;;;;;;20.88;62.13;95638.28;5012702;28;20072;-67
2022/06/13 08:36:12;;;;;;;1999.90;999.90;;;;;;;20.69;62.88;95657.97;5012669;28;20482;-67
2022/06/13 08:38:38;;;;;;;1999.90;999.90;;;;;;;21.35;61.86;95647.25;5011389;28;20040;-67
2022/06/13 08:41:13;;;;;;;1999.90;999.90;;;;;;;22.27;58.87;95656.84;5010843;28;20026;-66
2022/06/13 08:43:57;;;;;;;1999.90;999.90;;;;;;;22.13;59.31;95662.03;5011224;28;20029;-67
2022/06/13 08:46:41;;;;;;;1999.90;999.90;;;;;;;21.88;59.29;95656.22;5011044;28;20030;-70
2022/06/13 08:49:21;;;;;;;1999.90;999.90;;;;;;;21.59;60.04;95648.78;5011406;28;20056;-67
2022/06/13 08:51:48;;;;;;;1999.90;999.90;;;;;;;21.21;61.40;95656.63;5010807;28;20025;-67
2022/06/13 08:54:26;;;;;;;1999.90;999.90;;;;;;;21.57;60.78;95651.88;5012302;28;20026;-67
2022/06/13 08:56:53;;;;;;;1999.90;999.90;;;;;;;21.25;59.00;95652.06;5010953;28;20026;-67
2022/06/13 08:59:36;;;;;;;1999.90;999.90;;;;;;;21.70;58.99;95649.75;5012548;28;20500;-66
2022/06/13 09:02:12;;;;;;;1999.90;999.90;;;;;;;21.80;58.78;95660.75;5012449;28;20026;-67
2022/06/13 09:04:41;;;;;;;1999.90;999.90;;;;;;;21.79;57.71;95647.56;5012255;28;20025;-67
2022/06/13 09:07:13;;;;;;;1999.90;999.90;;;;;;;21.97;56.54;95667.59;5010994;28;20474;-67
2022/06/13 09:09:47;;;;;;;;;;;;;;;22.52;55.03;95667.19;5012951;28;20058;-67
2022/06/13 09:12:22;;;;;;;1999.90;999.90;;;;;;;21.96;54.90;95647.06;5011921;28;20000;-67
2022/06/13 09:15:16;;;;;;;1999.90;999.90;;;;;;;22.26;52.64;95671.50;5012280;28;20030;-69
2022/06/13 09:17:53;;;;;;;1999.90;999.90;;;;;;;22.11;53.23;95668.97;5010597;28;20034;-66
2022/06/13 09:20:27;;;;;;;1999.90;999.90;;;;;;;21.92;53.87;95673.31;5011748;28;20026;-67
2022/06/13 09:23:12;;;;;;;1999.90;999.90;;;;;;;21.33;53.68;95676.56;5011844;28;20022;-67
2022/06/13 09:26:09;;;;;;;1999.90;999.90;;;;;;;21.93;52.91;95674.09;5012131;28;20470;-67
2022/06/13 09:28:55;;;;;;;1999.90;999.90;;;;;;;22.06;52.52;95665.41;5011921;28;20030;-67
2022/06/13 09:31:56;;;;;;;1999.90;999.90;;;;;;;22.05;53.01;95682.78;5011743;28;20025;-67
2022/06/13 09:34:45;;;;;;;1999.90;999.90;;;;;;;21.71;52.53;95690.00;4998667;28;20034;-67
2022/06/13 09:37:18;;;;;;;1999.90;999.90;;;;;;;22.53;50.85;95680.41;5011800;28;20026;-68
2022/06/13 09:39:44;;;;;;;1999.90;999.90;;;;;;;22.09;51.11;95699.09;5011622;28;20383;-67
2022/06/13 09:42:29;;;;;;;1999.90;999.90;;;;;;;21.97;51.12;95694.69;5011358;28;20084;-67
2022/06/13 09:44:57;;;;;;;1999.90;999.90;;;;;;;22.43;50.61;95675.63;5010268;28;20026;-68
2022/06/13 09:47:33;;;;;;;1999.90;999.90;;;;;;;23.91;48.56;95679.56;5011626;28;20117;-68
2022/06/13 09:50:45;;;;;;;1999.90;999.90;;;;;;;22.71;48.92;95679.84;5011254;28;20529;-69
2022/06/13 09:53:28;;;;;;;1999.90;999.90;;;;;;;22.56;48.27;95689.72;5011647;28;20029;-70
2022/06/13 09:56:03;;;;;;;1999.90;999.90;;;;;;;22.83;46.12;95683.13;5011176;28;20041;-70
2022/06/13 09:58:53;;;;;;;1999.90;999.90;;;;;;;23.05;46.59;95694.25;5011114;28;20029;-68
2022/06/13 10:01:43;;;;;;;1999.90;999.90;;;;;;;23.32;47.41;95692.19;5010588;28;20475;-68
2022/06/13 10:04:33;;;;;;;1999.90;999.90;;;;;;;23.06;47.94;95695.78;5004007;28;20479;-69
2022/06/13 10:07:06;;;;;;;1999.90;999.90;;;;;;;22.25;46.93;95698.97;5010231;28;20036;-67
2022/06/13 10:10:02;;;;;;;1999.90;999.90;;;;;;;22.62;46.92;95690.97;5010965;28;20040;-70
2022/06/13 10:12:39;;;;;;;1999.90;999.90;;;;;;;22.02;47.39;95694.38;5009806;28;20036;-69
2022/06/13 10:15:39;;;;;;;1999.90;999.90;;;;;;;22.19;47.83;95700.44;5011059;28;20546;-68
2022/06/13 10:18:46;;;;;;;1999.90;999.90;;;;;;;21.74;48.00;95700.09;5010308;28;20053;-68
2022/06/13 10:21:31;;;;;;;1999.90;999.90;;;;;;;22.27;46.31;95694.78;4987343;28;20087;-67
2022/06/13 10:24:18;;;;;;;1999.90;999.90;;;;;;;22.56;45.86;95690.50;5009664;28;20029;-68
2022/06/13 10:27:13;;;;;;;1999.90;999.90;;;;;;;22.14;45.78;95698.81;5010760;28;20359;-68
2022/06/13 10:29:50;;;;;;;1999.90;999.90;;;;;;;22.19;46.23;95697.72;5010206;28;20487;-68
2022/06/13 10:32:31;;;;;;;1999.90;999.90;;;;;;;22.56;46.41;95706.00;5010209;28;20036;-68
2022/06/13 10:35:08;;;;;;;1999.90;999.90;;;;;;;21.97;47.66;95699.31;5009067;28;20030;-68
2022/06/13 10:38:10;;;;;;;1999.90;999.90;;;;;;;22.52;44.87;95705.16;5010514;28;20101;-68
2022/06/13 10:40:36;;;;;;;;;;;;;;;22.43;45.81;95704.66;5010398;28;20057;-67
2022/06/13 10:43:03;;;;;;;1999.90;999.90;;;;;;;22.85;44.81;95696.28;5008889;28;19916;-67
2022/06/13 10:45:29;;;;;;;1999.90;999.90;;;;;;;22.84;43.83;95695.53;5010540;28;20494;-70
2022/06/13 10:48:09;;;;;;;1999.90;999.90;;;;;;;22.21;43.62;95711.69;5010135;28;20026;-68
2022/06/13 10:50:40;;;;;;;1999.90;999.90;;;;;;;22.71;43.48;95702.31;5009541;28;20026;-68
2022/06/13 10:53:17;;;;;;;1999.90;999.90;;;;;;;22.81;42.18;95682.69;5010061;28;20072;-68
2022/06/13 10:55:44;;;;;;;1999.90;999.90;;;;;;;22.65;44.71;95709.22;5010133;28;20026;-69
2022/06/13 10:58:17;;;;;;;1999.90;999.90;;;;;;;23.27;42.29;95697.97;5010012;28;20057;-68
2022/06/13 11:01:20;;;;;;;1999.90;999.90;;;;;;;23.74;42.84;95688.34;5009528;28;20038;-68
2022/06/13 11:04:01;;;;;;;1999.90;999.90;;;;;;;23.35;42.45;95689.53;5008660;28;20491;-68
2022/06/13 11:06:40;;;;;;;1999.90;999.90;;;;;;;23.73;42.05;95701.16;5009965;28;20034;-69
2022/06/13 11:09:20;;;;;;;1999.90;999.90;;;;;;;23.60;41.87;95703.34;5009562;28;20509;-68
2022/06/13 11:11:45;;;;;;;1999.90;999.90;;;;;;;23.31;41.21;95698.78;5009199;28;20033;-69
2022/06/13 11:14:28;;;;;;;1999.90;999.90;;;;;;;23.23;41.40;95711.47;5009634;28;20030;-68
2022/06/13 11:22:38;;;;;;;1999.90;999.90;;;;;;;22.81;39.91;95682.69;5009493;28;20044;-68
2022/06/13 11:25:26;;;;;;;1999.90;999.90;;;;;;;23.00;39.13;95697.28;5009430;28;20028;-69
2022/06/13 11:28:02;;;;;;;1999.90;999.90;;;;;;;23.31;39.97;95696.06;5009500;28;20025;-68
2022/06/13 11:30:28;;;;;;;1999.90;999.90;;;;;;;23.85;39.34;95702.78;5008961;28;20026;-68
2022/06/13 11:33:10;;;;;;;1999.90;999.90;;;;;;;23.89;38.89;95691.97;5008439;28;20041;-68
2022/06/13 11:35:41;;;;;;;1999.90;999.90;;;;;;;23.73;41.57;95695.72;5008507;28;20026;-69
2022/06/13 11:38:19;;;;;;;1999.90;999.90;;;;;;;23.51;40.91;95693.94;5009795;28;20041;-68
2022/06/13 11:40:47;;;;;;;1999.90;999.90;;;;;;;24.20;39.92;95698.78;5008573;28;20051;-69
2022/06/13 11:43:35;;;;;;;1999.90;999.90;;;;;;;24.19;41.08;95678.97;5012701;28;20030;-69